sensor_id;sensor_type;location;lat;lon;timestamp;temperature;humidity
52867;DHT22;38739;53.324;6.862;2023-04-03T00:02:17;2.80;99.90
52867;DHT22;38739;53.324;6.862;2023-04-03T00:04:43;2.80;99.90
52867;DHT22;38739;53.324;6.862;2023-04-03T00:07:09;2.80;99.90
52867;DHT22;38739;53.324;6.862;2023-04-03T00:09:34;2.80;99.90
52867;DHT22;38739;53.324;6.862;2023-04-03T00:12:00;2.70;99.90
52867;DHT22;38739;53.324;6.862;2023-04-03T00:14:26;2.70;99.90
52867;DHT22;38739;53.324;6.862;2023-04-03T00:16:53;2.60;99.90
52867;DHT22;38739;53.324;6.862;2023-04-03T00:19:18;2.60;99.90
52867;DHT22;38739;53.324;6.862;2023-04-03T00:21:45;2.60;99.90
52867;DHT22;38739;53.324;6.862;2023-04-03T00:24:11;2.60;99.90
52867;DHT22;38739;53.324;6.862;2023-04-03T00:26:36;2.60;99.90
52867;DHT22;38739;53.324;6.862;2023-04-03T00:29:02;2.50;99.90
52867;DHT22;38739;53.324;6.862;2023-04-03T00:31:28;2.50;99.90
52867;DHT22;38739;53.324;6.862;2023-04-03T00:33:54;2.50;99.90
52867;DHT22;38739;53.324;6.862;2023-04-03T00:36:19;2.40;99.90
52867;DHT22;38739;53.324;6.862;2023-04-03T00:38:45;2.40;99.90
52867;DHT22;38739;53.324;6.862;2023-04-03T00:41:11;2.40;99.90
52867;DHT22;38739;53.324;6.862;2023-04-03T00:43:37;2.30;99.90
52867;DHT22;38739;53.324;6.862;2023-04-03T00:46:03;2.30;99.90
52867;DHT22;38739;53.324;6.862;2023-04-03T00:48:32;2.30;99.90
52867;DHT22;38739;53.324;6.862;2023-04-03T00:51:00;2.30;99.90
52867;DHT22;38739;53.324;6.862;2023-04-03T00:53:37;2.30;99.90
52867;DHT22;38739;53.324;6.862;2023-04-03T00:56:06;2.30;99.90
52867;DHT22;38739;53.324;6.862;2023-04-03T00:58:38;2.30;99.90
52867;DHT22;38739;53.324;6.862;2023-04-03T01:01:08;2.30;99.90
52867;DHT22;38739;53.324;6.862;2023-04-03T01:03:35;2.30;99.90
52867;DHT22;38739;53.324;6.862;2023-04-03T01:06:01;2.20;99.90
52867;DHT22;38739;53.324;6.862;2023-04-03T01:08:27;2.30;99.90
52867;DHT22;38739;53.324;6.862;2023-04-03T01:10:53;2.20;99.90
52867;DHT22;38739;53.324;6.862;2023-04-03T01:13:28;2.20;99.90
52867;DHT22;38739;53.324;6.862;2023-04-03T01:15:56;2.10;99.90
52867;DHT22;38739;53.324;6.862;2023-04-03T01:18:24;2.10;99.90
52867;DHT22;38739;53.324;6.862;2023-04-03T01:23:51;2.20;99.90
52867;DHT22;38739;53.324;6.862;2023-04-03T01:26:18;2.20;99.90
52867;DHT22;38739;53.324;6.862;2023-04-03T01:28:45;2.20;99.90
52867;DHT22;38739;53.324;6.862;2023-04-03T01:31:31;2.30;99.90
52867;DHT22;38739;53.324;6.862;2023-04-03T01:33:59;2.30;99.90
52867;DHT22;38739;53.324;6.862;2023-04-03T01:36:30;2.40;99.90
52867;DHT22;38739;53.324;6.862;2023-04-03T01:38:57;2.40;99.90
52867;DHT22;38739;53.324;6.862;2023-04-03T01:41:23;2.40;99.90
52867;DHT22;38739;53.324;6.862;2023-04-03T01:43:49;2.40;99.90
52867;DHT22;38739;53.324;6.862;2023-04-03T01:46:17;2.40;99.90
52867;DHT22;38739;53.324;6.862;2023-04-03T01:48:43;2.40;99.90
52867;DHT22;38739;53.324;6.862;2023-04-03T01:51:09;2.40;99.90
52867;DHT22;38739;53.324;6.862;2023-04-03T01:53:35;2.40;99.90
52867;DHT22;38739;53.324;6.862;2023-04-03T01:56:00;2.40;99.90
52867;DHT22;38739;53.324;6.862;2023-04-03T01:58:26;2.40;99.90
52867;DHT22;38739;53.324;6.862;2023-04-03T02:00:52;2.30;99.90
52867;DHT22;38739;53.324;6.862;2023-04-03T02:03:18;2.30;99.90
52867;DHT22;38739;53.324;6.862;2023-04-03T02:05:44;2.30;99.90
52867;DHT22;38739;53.324;6.862;2023-04-03T02:08:10;2.30;99.90
52867;DHT22;38739;53.324;6.862;2023-04-03T02:10:36;2.20;99.90
52867;DHT22;38739;53.324;6.862;2023-04-03T02:13:03;2.20;99.90
52867;DHT22;38739;53.324;6.862;2023-04-03T02:15:28;2.20;99.90
52867;DHT22;38739;53.324;6.862;2023-04-03T02:17:54;2.10;99.90
52867;DHT22;38739;53.324;6.862;2023-04-03T02:20:20;2.10;99.90
52867;DHT22;38739;53.324;6.862;2023-04-03T02:22:46;2.10;99.90
52867;DHT22;38739;53.324;6.862;2023-04-03T02:25:12;2.00;99.90
52867;DHT22;38739;53.324;6.862;2023-04-03T02:27:38;2.00;99.90
52867;DHT22;38739;53.324;6.862;2023-04-03T02:30:04;2.00;99.90
52867;DHT22;38739;53.324;6.862;2023-04-03T02:32:31;2.00;99.90
52867;DHT22;38739;53.324;6.862;2023-04-03T02:34:56;1.90;99.90
52867;DHT22;38739;53.324;6.862;2023-04-03T02:37:22;1.90;99.90
52867;DHT22;38739;53.324;6.862;2023-04-03T02:39:48;1.90;99.90
52867;DHT22;38739;53.324;6.862;2023-04-03T02:42:13;1.90;99.90
52867;DHT22;38739;53.324;6.862;2023-04-03T02:44:39;1.80;99.90
52867;DHT22;38739;53.324;6.862;2023-04-03T02:47:05;1.80;99.90
52867;DHT22;38739;53.324;6.862;2023-04-03T02:49:31;1.70;99.90
52867;DHT22;38739;53.324;6.862;2023-04-03T02:51:57;1.70;99.90
52867;DHT22;38739;53.324;6.862;2023-04-03T02:54:23;1.60;99.90
52867;DHT22;38739;53.324;6.862;2023-04-03T02:56:50;1.60;99.90
52867;DHT22;38739;53.324;6.862;2023-04-03T02:59:15;1.50;99.90
52867;DHT22;38739;53.324;6.862;2023-04-03T03:01:41;1.50;99.90
52867;DHT22;38739;53.324;6.862;2023-04-03T03:04:07;1.50;99.90
52867;DHT22;38739;53.324;6.862;2023-04-03T03:06:33;1.40;99.90
52867;DHT22;38739;53.324;6.862;2023-04-03T03:08:58;1.30;99.90
52867;DHT22;38739;53.324;6.862;2023-04-03T03:11:25;1.30;99.90
52867;DHT22;38739;53.324;6.862;2023-04-03T03:13:50;1.20;99.90
52867;DHT22;38739;53.324;6.862;2023-04-03T03:16:16;1.20;99.90
52867;DHT22;38739;53.324;6.862;2023-04-03T03:18:42;1.10;99.90
52867;DHT22;38739;53.324;6.862;2023-04-03T03:21:09;1.10;99.90
52867;DHT22;38739;53.324;6.862;2023-04-03T03:23:35;1.10;99.90
52867;DHT22;38739;53.324;6.862;2023-04-03T03:26:04;1.10;99.90
52867;DHT22;38739;53.324;6.862;2023-04-03T03:28:30;1.10;99.90
52867;DHT22;38739;53.324;6.862;2023-04-03T03:30:57;1.00;99.90
52867;DHT22;38739;53.324;6.862;2023-04-03T03:33:23;1.00;99.90
52867;DHT22;38739;53.324;6.862;2023-04-03T03:35:48;1.00;99.90
52867;DHT22;38739;53.324;6.862;2023-04-03T03:38:15;0.90;99.90
52867;DHT22;38739;53.324;6.862;2023-04-03T03:40:40;0.90;99.90
52867;DHT22;38739;53.324;6.862;2023-04-03T03:43:06;0.90;99.90
52867;DHT22;38739;53.324;6.862;2023-04-03T03:45:32;0.80;99.90
52867;DHT22;38739;53.324;6.862;2023-04-03T03:47:58;0.80;99.90
52867;DHT22;38739;53.324;6.862;2023-04-03T03:50:23;0.80;99.90
52867;DHT22;38739;53.324;6.862;2023-04-03T03:52:50;0.70;99.90
52867;DHT22;38739;53.324;6.862;2023-04-03T03:55:15;0.70;99.90
52867;DHT22;38739;53.324;6.862;2023-04-03T03:57:41;0.70;99.90
52867;DHT22;38739;53.324;6.862;2023-04-03T04:00:07;0.70;99.90
52867;DHT22;38739;53.324;6.862;2023-04-03T04:02:34;0.70;99.90
52867;DHT22;38739;53.324;6.862;2023-04-03T04:04:59;0.70;99.90
52867;DHT22;38739;53.324;6.862;2023-04-03T04:07:25;0.70;99.90
52867;DHT22;38739;53.324;6.862;2023-04-03T04:09:53;0.70;99.90
52867;DHT22;38739;53.324;6.862;2023-04-03T04:12:19;0.70;99.90
52867;DHT22;38739;53.324;6.862;2023-04-03T04:14:46;0.70;99.90
52867;DHT22;38739;53.324;6.862;2023-04-03T04:17:13;0.60;99.90
52867;DHT22;38739;53.324;6.862;2023-04-03T04:19:38;0.70;99.90
52867;DHT22;38739;53.324;6.862;2023-04-03T04:22:04;0.60;99.90
52867;DHT22;38739;53.324;6.862;2023-04-03T04:24:30;0.60;99.90
52867;DHT22;38739;53.324;6.862;2023-04-03T04:26:55;0.60;99.90
52867;DHT22;38739;53.324;6.862;2023-04-03T04:29:21;0.60;99.90
52867;DHT22;38739;53.324;6.862;2023-04-03T04:31:47;0.60;99.90
52867;DHT22;38739;53.324;6.862;2023-04-03T04:34:13;0.60;99.90
52867;DHT22;38739;53.324;6.862;2023-04-03T04:36:39;0.60;99.90
52867;DHT22;38739;53.324;6.862;2023-04-03T04:39:05;0.70;99.90
52867;DHT22;38739;53.324;6.862;2023-04-03T04:41:31;0.60;99.90
52867;DHT22;38739;53.324;6.862;2023-04-03T04:43:57;0.60;99.90
52867;DHT22;38739;53.324;6.862;2023-04-03T04:46:23;0.70;99.90
52867;DHT22;38739;53.324;6.862;2023-04-03T04:48:49;0.70;99.90
52867;DHT22;38739;53.324;6.862;2023-04-03T04:51:15;0.70;99.90
52867;DHT22;38739;53.324;6.862;2023-04-03T04:53:41;0.70;99.90
52867;DHT22;38739;53.324;6.862;2023-04-03T04:56:08;0.60;99.90
52867;DHT22;38739;53.324;6.862;2023-04-03T04:58:34;0.60;99.90
52867;DHT22;38739;53.324;6.862;2023-04-03T05:01:02;0.60;99.90
52867;DHT22;38739;53.324;6.862;2023-04-03T05:03:28;0.60;99.90
52867;DHT22;38739;53.324;6.862;2023-04-03T05:05:54;0.60;99.90
52867;DHT22;38739;53.324;6.862;2023-04-03T05:08:19;0.60;99.90
52867;DHT22;38739;53.324;6.862;2023-04-03T05:10:46;0.60;99.90
52867;DHT22;38739;53.324;6.862;2023-04-03T05:13:12;0.60;99.90
52867;DHT22;38739;53.324;6.862;2023-04-03T05:15:38;0.70;99.90
52867;DHT22;38739;53.324;6.862;2023-04-03T05:18:04;0.60;99.90
52867;DHT22;38739;53.324;6.862;2023-04-03T05:20:31;0.70;99.90
52867;DHT22;38739;53.324;6.862;2023-04-03T05:22:56;0.80;99.90
52867;DHT22;38739;53.324;6.862;2023-04-03T05:25:23;0.80;99.90
52867;DHT22;38739;53.324;6.862;2023-04-03T05:27:49;0.90;99.90
52867;DHT22;38739;53.324;6.862;2023-04-03T05:30:15;0.80;99.90
52867;DHT22;38739;53.324;6.862;2023-04-03T05:32:41;0.90;99.90
52867;DHT22;38739;53.324;6.862;2023-04-03T05:35:08;0.90;99.90
52867;DHT22;38739;53.324;6.862;2023-04-03T05:37:34;0.90;99.90
52867;DHT22;38739;53.324;6.862;2023-04-03T05:40:00;0.90;99.90
52867;DHT22;38739;53.324;6.862;2023-04-03T05:42:25;0.90;99.90
52867;DHT22;38739;53.324;6.862;2023-04-03T05:44:51;0.90;99.90
52867;DHT22;38739;53.324;6.862;2023-04-03T05:47:18;0.90;99.90
52867;DHT22;38739;53.324;6.862;2023-04-03T05:49:44;0.90;99.90
52867;DHT22;38739;53.324;6.862;2023-04-03T05:52:25;0.90;99.90
52867;DHT22;38739;53.324;6.862;2023-04-03T05:54:51;1.00;99.90
52867;DHT22;38739;53.324;6.862;2023-04-03T05:57:17;1.00;99.90
52867;DHT22;38739;53.324;6.862;2023-04-03T05:59:44;1.00;99.90
52867;DHT22;38739;53.324;6.862;2023-04-03T06:02:13;1.00;99.90
52867;DHT22;38739;53.324;6.862;2023-04-03T06:04:39;1.10;99.90
52867;DHT22;38739;53.324;6.862;2023-04-03T06:07:05;1.20;99.90
52867;DHT22;38739;53.324;6.862;2023-04-03T06:09:31;1.10;99.90
52867;DHT22;38739;53.324;6.862;2023-04-03T06:11:57;1.20;99.90
52867;DHT22;38739;53.324;6.862;2023-04-03T06:14:25;1.30;99.90
52867;DHT22;38739;53.324;6.862;2023-04-03T06:16:51;1.30;99.90
52867;DHT22;38739;53.324;6.862;2023-04-03T06:19:18;1.40;99.90
52867;DHT22;38739;53.324;6.862;2023-04-03T06:21:43;1.50;99.90
52867;DHT22;38739;53.324;6.862;2023-04-03T06:24:12;1.60;99.90
52867;DHT22;38739;53.324;6.862;2023-04-03T06:26:39;1.70;99.90
52867;DHT22;38739;53.324;6.862;2023-04-03T06:29:04;1.80;99.90
52867;DHT22;38739;53.324;6.862;2023-04-03T06:31:30;1.90;99.90
52867;DHT22;38739;53.324;6.862;2023-04-03T06:33:56;2.10;99.90
52867;DHT22;38739;53.324;6.862;2023-04-03T06:36:22;2.10;99.90
52867;DHT22;38739;53.324;6.862;2023-04-03T06:38:48;2.30;99.90
52867;DHT22;38739;53.324;6.862;2023-04-03T06:41:14;2.40;99.90
52867;DHT22;38739;53.324;6.862;2023-04-03T06:43:42;2.50;99.90
52867;DHT22;38739;53.324;6.862;2023-04-03T06:46:16;2.60;99.90
52867;DHT22;38739;53.324;6.862;2023-04-03T06:48:42;2.70;99.90
52867;DHT22;38739;53.324;6.862;2023-04-03T06:51:19;2.70;99.90
52867;DHT22;38739;53.324;6.862;2023-04-03T06:53:49;2.80;99.90
52867;DHT22;38739;53.324;6.862;2023-04-03T06:56:16;3.00;99.90
52867;DHT22;38739;53.324;6.862;2023-04-03T06:58:42;3.10;99.90
52867;DHT22;38739;53.324;6.862;2023-04-03T07:01:09;3.20;99.90
52867;DHT22;38739;53.324;6.862;2023-04-03T07:03:36;3.20;99.90
52867;DHT22;38739;53.324;6.862;2023-04-03T07:06:02;3.30;99.90
52867;DHT22;38739;53.324;6.862;2023-04-03T07:08:29;3.40;99.90
52867;DHT22;38739;53.324;6.862;2023-04-03T07:10:55;3.50;99.90
52867;DHT22;38739;53.324;6.862;2023-04-03T07:13:21;3.60;99.90
52867;DHT22;38739;53.324;6.862;2023-04-03T07:15:46;3.70;99.90
52867;DHT22;38739;53.324;6.862;2023-04-03T07:18:12;3.80;99.90
52867;DHT22;38739;53.324;6.862;2023-04-03T07:20:38;3.90;99.90
52867;DHT22;38739;53.324;6.862;2023-04-03T07:23:04;4.00;99.90
52867;DHT22;38739;53.324;6.862;2023-04-03T07:25:30;4.20;99.90
52867;DHT22;38739;53.324;6.862;2023-04-03T07:27:57;4.30;99.90
52867;DHT22;38739;53.324;6.862;2023-04-03T07:30:23;4.40;99.90
52867;DHT22;38739;53.324;6.862;2023-04-03T07:32:49;4.50;99.90
52867;DHT22;38739;53.324;6.862;2023-04-03T07:35:15;4.60;99.90
52867;DHT22;38739;53.324;6.862;2023-04-03T07:37:42;4.80;99.90
52867;DHT22;38739;53.324;6.862;2023-04-03T07:40:08;4.90;99.90
52867;DHT22;38739;53.324;6.862;2023-04-03T07:42:34;5.00;99.90
52867;DHT22;38739;53.324;6.862;2023-04-03T07:45:01;5.20;99.90
52867;DHT22;38739;53.324;6.862;2023-04-03T07:47:27;5.30;99.90
52867;DHT22;38739;53.324;6.862;2023-04-03T07:49:53;5.50;99.90
52867;DHT22;38739;53.324;6.862;2023-04-03T07:52:19;5.50;99.90
52867;DHT22;38739;53.324;6.862;2023-04-03T07:54:44;5.60;99.90
52867;DHT22;38739;53.324;6.862;2023-04-03T07:57:10;5.70;99.90
52867;DHT22;38739;53.324;6.862;2023-04-03T07:59:37;5.80;99.90
52867;DHT22;38739;53.324;6.862;2023-04-03T08:02:02;5.90;99.90
52867;DHT22;38739;53.324;6.862;2023-04-03T08:04:30;6.00;99.90
52867;DHT22;38739;53.324;6.862;2023-04-03T08:06:56;6.00;99.90
52867;DHT22;38739;53.324;6.862;2023-04-03T08:09:21;6.20;99.90
52867;DHT22;38739;53.324;6.862;2023-04-03T08:11:47;6.20;99.90
52867;DHT22;38739;53.324;6.862;2023-04-03T08:14:13;6.40;99.90
52867;DHT22;38739;53.324;6.862;2023-04-03T08:16:45;6.40;99.90
52867;DHT22;38739;53.324;6.862;2023-04-03T08:19:11;6.70;99.90
52867;DHT22;38739;53.324;6.862;2023-04-03T08:21:40;6.70;99.90
52867;DHT22;38739;53.324;6.862;2023-04-03T08:24:07;6.90;99.90
52867;DHT22;38739;53.324;6.862;2023-04-03T08:26:34;7.00;99.90
52867;DHT22;38739;53.324;6.862;2023-04-03T08:29:00;7.30;99.90
52867;DHT22;38739;53.324;6.862;2023-04-03T08:31:25;7.30;99.40
52867;DHT22;38739;53.324;6.862;2023-04-03T08:33:52;7.40;99.10
52867;DHT22;38739;53.324;6.862;2023-04-03T08:36:19;7.60;97.80
52867;DHT22;38739;53.324;6.862;2023-04-03T08:38:45;7.80;98.20
52867;DHT22;38739;53.324;6.862;2023-04-03T08:43:55;8.10;97.60
52867;DHT22;38739;53.324;6.862;2023-04-03T08:46:26;8.20;97.50
52867;DHT22;38739;53.324;6.862;2023-04-03T08:48:59;8.30;97.30
52867;DHT22;38739;53.324;6.862;2023-04-03T08:51:26;8.40;96.10
52867;DHT22;38739;53.324;6.862;2023-04-03T08:54:00;8.50;95.70
52867;DHT22;38739;53.324;6.862;2023-04-03T08:56:29;8.70;95.00
52867;DHT22;38739;53.324;6.862;2023-04-03T08:59:04;8.90;94.40
52867;DHT22;38739;53.324;6.862;2023-04-03T09:01:36;9.00;92.00
52867;DHT22;38739;53.324;6.862;2023-04-03T09:04:05;9.20;90.20
52867;DHT22;38739;53.324;6.862;2023-04-03T09:06:36;9.30;87.60
52867;DHT22;38739;53.324;6.862;2023-04-03T09:12:25;9.80;88.40
52867;DHT22;38739;53.324;6.862;2023-04-03T09:17:56;10.30;80.50
52867;DHT22;38739;53.324;6.862;2023-04-03T09:26:03;10.80;81.50
52867;DHT22;38739;53.324;6.862;2023-04-03T09:28:34;11.00;80.10
52867;DHT22;38739;53.324;6.862;2023-04-03T09:31:03;11.00;76.20
52867;DHT22;38739;53.324;6.862;2023-04-03T09:33:35;11.10;75.90
52867;DHT22;38739;53.324;6.862;2023-04-03T09:36:01;11.10;74.50
52867;DHT22;38739;53.324;6.862;2023-04-03T09:38:27;11.50;76.10
52867;DHT22;38739;53.324;6.862;2023-04-03T09:41:06;11.80;76.30
52867;DHT22;38739;53.324;6.862;2023-04-03T09:43:34;12.20;73.20
52867;DHT22;38739;53.324;6.862;2023-04-03T09:46:25;12.40;71.40
52867;DHT22;38739;53.324;6.862;2023-04-03T09:49:02;12.80;72.10
52867;DHT22;38739;53.324;6.862;2023-04-03T09:51:29;13.10;67.20
52867;DHT22;38739;53.324;6.862;2023-04-03T09:53:55;13.30;66.80
52867;DHT22;38739;53.324;6.862;2023-04-03T09:56:23;13.50;68.70
52867;DHT22;38739;53.324;6.862;2023-04-03T09:58:52;13.70;68.30
52867;DHT22;38739;53.324;6.862;2023-04-03T10:01:36;13.80;66.20
52867;DHT22;38739;53.324;6.862;2023-04-03T10:04:18;13.90;63.50
52867;DHT22;38739;53.324;6.862;2023-04-03T10:06:49;14.10;65.30
52867;DHT22;38739;53.324;6.862;2023-04-03T10:09:27;14.30;59.90
52867;DHT22;38739;53.324;6.862;2023-04-03T10:12:10;14.30;59.50
52867;DHT22;38739;53.324;6.862;2023-04-03T10:14:55;14.50;58.80
52867;DHT22;38739;53.324;6.862;2023-04-03T10:20:30;14.50;61.50
52867;DHT22;38739;53.324;6.862;2023-04-03T10:35:28;14.60;60.90
52867;DHT22;38739;53.324;6.862;2023-04-03T10:52:20;15.70;55.30
52867;DHT22;38739;53.324;6.862;2023-04-03T10:55:09;15.80;54.60
52867;DHT22;38739;53.324;6.862;2023-04-03T10:57:40;15.80;51.00
52867;DHT22;38739;53.324;6.862;2023-04-03T11:00:26;15.90;54.40
52867;DHT22;38739;53.324;6.862;2023-04-03T11:03:15;15.90;52.90
52867;DHT22;38739;53.324;6.862;2023-04-03T11:05:47;16.10;51.70
52867;DHT22;38739;53.324;6.862;2023-04-03T11:10:51;16.40;51.40
52867;DHT22;38739;53.324;6.862;2023-04-03T11:13:34;16.60;53.70
52867;DHT22;38739;53.324;6.862;2023-04-03T11:16:03;16.60;51.60
52867;DHT22;38739;53.324;6.862;2023-04-03T11:18:37;16.90;52.30
52867;DHT22;38739;53.324;6.862;2023-04-03T11:21:22;17.20;52.80
52867;DHT22;38739;53.324;6.862;2023-04-03T11:23:51;17.50;51.30
52867;DHT22;38739;53.324;6.862;2023-04-03T11:26:21;17.60;50.50
52867;DHT22;38739;53.324;6.862;2023-04-03T11:28:53;17.70;50.20
52867;DHT22;38739;53.324;6.862;2023-04-03T11:34:33;18.30;52.00
52867;DHT22;38739;53.324;6.862;2023-04-03T11:37:06;18.70;49.60
52867;DHT22;38739;53.324;6.862;2023-04-03T11:39:38;18.80;49.10
52867;DHT22;38739;53.324;6.862;2023-04-03T11:42:32;18.90;50.00
52867;DHT22;38739;53.324;6.862;2023-04-03T12:13:41;21.70;43.40
52867;DHT22;38739;53.324;6.862;2023-04-03T12:27:17;21.90;44.00
52867;DHT22;38739;53.324;6.862;2023-04-03T12:29:58;21.70;43.70
52867;DHT22;38739;53.324;6.862;2023-04-03T12:37:54;21.10;45.80
52867;DHT22;38739;53.324;6.862;2023-04-03T12:46:19;21.20;47.30
52867;DHT22;38739;53.324;6.862;2023-04-03T12:48:59;21.30;46.70
52867;DHT22;38739;53.324;6.862;2023-04-03T12:51:40;21.80;48.00
52867;DHT22;38739;53.324;6.862;2023-04-03T12:54:23;21.90;47.80
52867;DHT22;38739;53.324;6.862;2023-04-03T12:56:51;21.50;47.10
52867;DHT22;38739;53.324;6.862;2023-04-03T12:59:25;21.40;46.60
52867;DHT22;38739;53.324;6.862;2023-04-03T13:01:56;21.00;47.10
52867;DHT22;38739;53.324;6.862;2023-04-03T13:04:22;21.60;47.60
52867;DHT22;38739;53.324;6.862;2023-04-03T13:06:49;21.70;46.50
52867;DHT22;38739;53.324;6.862;2023-04-03T13:11:50;22.20;45.50
52867;DHT22;38739;53.324;6.862;2023-04-03T13:14:22;21.90;46.00
52867;DHT22;38739;53.324;6.862;2023-04-03T13:19:24;20.90;45.10
52867;DHT22;38739;53.324;6.862;2023-04-03T13:21:58;21.00;46.80
52867;DHT22;38739;53.324;6.862;2023-04-03T13:24:25;21.00;46.90
52867;DHT22;38739;53.324;6.862;2023-04-03T13:26:51;21.40;45.80
52867;DHT22;38739;53.324;6.862;2023-04-03T13:29:30;21.70;45.70
52867;DHT22;38739;53.324;6.862;2023-04-03T13:31:56;21.10;44.60
52867;DHT22;38739;53.324;6.862;2023-04-03T13:34:25;20.10;45.20
52867;DHT22;38739;53.324;6.862;2023-04-03T13:39:27;21.10;46.50
52867;DHT22;38739;53.324;6.862;2023-04-03T13:41:58;20.30;45.40
52867;DHT22;38739;53.324;6.862;2023-04-03T13:44:36;20.30;45.40
52867;DHT22;38739;53.324;6.862;2023-04-03T13:49:42;20.90;46.10
52867;DHT22;38739;53.324;6.862;2023-04-03T13:57:52;21.10;45.20
52867;DHT22;38739;53.324;6.862;2023-04-03T14:00:36;21.70;46.40
52867;DHT22;38739;53.324;6.862;2023-04-03T14:03:26;21.70;44.20
52867;DHT22;38739;53.324;6.862;2023-04-03T14:05:54;21.40;44.20
52867;DHT22;38739;53.324;6.862;2023-04-03T14:08:20;21.10;44.70
52867;DHT22;38739;53.324;6.862;2023-04-03T14:10:47;21.20;44.90
52867;DHT22;38739;53.324;6.862;2023-04-03T14:13:16;21.40;44.50
52867;DHT22;38739;53.324;6.862;2023-04-03T14:15:43;21.60;44.00
52867;DHT22;38739;53.324;6.862;2023-04-03T14:18:13;21.70;44.40
52867;DHT22;38739;53.324;6.862;2023-04-03T14:20:39;21.90;44.20
52867;DHT22;38739;53.324;6.862;2023-04-03T14:23:05;21.70;43.40
52867;DHT22;38739;53.324;6.862;2023-04-03T14:25:32;21.50;43.50
52867;DHT22;38739;53.324;6.862;2023-04-03T14:27:58;21.50;44.40
52867;DHT22;38739;53.324;6.862;2023-04-03T14:30:33;21.80;43.90
52867;DHT22;38739;53.324;6.862;2023-04-03T14:32:59;21.60;42.40
52867;DHT22;38739;53.324;6.862;2023-04-03T14:35:26;21.50;43.60
52867;DHT22;38739;53.324;6.862;2023-04-03T14:37:53;21.30;42.90
52867;DHT22;38739;53.324;6.862;2023-04-03T14:40:25;20.90;43.60
52867;DHT22;38739;53.324;6.862;2023-04-03T14:42:51;20.50;43.70
52867;DHT22;38739;53.324;6.862;2023-04-03T14:45:21;20.10;43.90
52867;DHT22;38739;53.324;6.862;2023-04-03T14:47:50;20.30;44.40
52867;DHT22;38739;53.324;6.862;2023-04-03T14:50:26;20.30;45.10
52867;DHT22;38739;53.324;6.862;2023-04-03T14:52:55;20.10;44.50
52867;DHT22;38739;53.324;6.862;2023-04-03T14:55:22;20.10;44.20
52867;DHT22;38739;53.324;6.862;2023-04-03T14:57:48;20.10;44.60
52867;DHT22;38739;53.324;6.862;2023-04-03T15:00:17;20.00;44.20
52867;DHT22;38739;53.324;6.862;2023-04-03T15:02:44;19.80;44.40
52867;DHT22;38739;53.324;6.862;2023-04-03T15:05:11;19.80;44.70
52867;DHT22;38739;53.324;6.862;2023-04-03T15:07:42;19.70;44.80
52867;DHT22;38739;53.324;6.862;2023-04-03T15:10:20;19.70;45.30
52867;DHT22;38739;53.324;6.862;2023-04-03T15:12:46;19.80;45.20
52867;DHT22;38739;53.324;6.862;2023-04-03T15:15:14;19.60;45.00
52867;DHT22;38739;53.324;6.862;2023-04-03T15:17:41;19.40;45.80
52867;DHT22;38739;53.324;6.862;2023-04-03T15:20:16;19.10;46.00
52867;DHT22;38739;53.324;6.862;2023-04-03T15:22:42;19.30;46.30
52867;DHT22;38739;53.324;6.862;2023-04-03T15:25:09;18.80;45.80
52867;DHT22;38739;53.324;6.862;2023-04-03T15:27:35;18.70;46.50
52867;DHT22;38739;53.324;6.862;2023-04-03T15:30:01;18.60;46.00
52867;DHT22;38739;53.324;6.862;2023-04-03T15:32:27;18.50;46.40
52867;DHT22;38739;53.324;6.862;2023-04-03T15:34:53;18.50;47.10
52867;DHT22;38739;53.324;6.862;2023-04-03T15:37:19;18.40;46.80
52867;DHT22;38739;53.324;6.862;2023-04-03T15:39:45;18.60;47.00
52867;DHT22;38739;53.324;6.862;2023-04-03T15:42:11;18.60;46.60
52867;DHT22;38739;53.324;6.862;2023-04-03T15:44:38;18.30;46.90
52867;DHT22;38739;53.324;6.862;2023-04-03T15:47:03;18.30;48.40
52867;DHT22;38739;53.324;6.862;2023-04-03T15:49:32;18.10;47.90
52867;DHT22;38739;53.324;6.862;2023-04-03T15:51:58;17.90;48.00
52867;DHT22;38739;53.324;6.862;2023-04-03T15:54:24;17.80;48.90
52867;DHT22;38739;53.324;6.862;2023-04-03T15:56:51;17.70;47.90
52867;DHT22;38739;53.324;6.862;2023-04-03T15:59:17;17.70;48.40
52867;DHT22;38739;53.324;6.862;2023-04-03T16:01:43;17.40;48.40
52867;DHT22;38739;53.324;6.862;2023-04-03T16:04:09;17.30;48.80
52867;DHT22;38739;53.324;6.862;2023-04-03T16:06:36;17.20;49.10
52867;DHT22;38739;53.324;6.862;2023-04-03T16:09:02;17.00;49.50
52867;DHT22;38739;53.324;6.862;2023-04-03T16:11:28;16.90;50.20
52867;DHT22;38739;53.324;6.862;2023-04-03T16:13:54;16.40;50.00
52867;DHT22;38739;53.324;6.862;2023-04-03T16:16:20;16.30;50.60
52867;DHT22;38739;53.324;6.862;2023-04-03T16:18:47;16.20;51.00
52867;DHT22;38739;53.324;6.862;2023-04-03T16:21:13;15.90;51.50
52867;DHT22;38739;53.324;6.862;2023-04-03T16:23:41;15.90;52.00
52867;DHT22;38739;53.324;6.862;2023-04-03T16:26:07;15.70;52.50
52867;DHT22;38739;53.324;6.862;2023-04-03T16:28:33;15.30;52.90
52867;DHT22;38739;53.324;6.862;2023-04-03T16:31:00;14.70;53.80
52867;DHT22;38739;53.324;6.862;2023-04-03T16:33:26;13.90;54.60
52867;DHT22;38739;53.324;6.862;2023-04-03T16:35:52;13.10;56.80
52867;DHT22;38739;53.324;6.862;2023-04-03T16:38:18;12.50;59.50
52867;DHT22;38739;53.324;6.862;2023-04-03T16:40:45;12.00;60.10
52867;DHT22;38739;53.324;6.862;2023-04-03T16:43:11;11.50;60.80
52867;DHT22;38739;53.324;6.862;2023-04-03T16:45:37;11.20;61.20
52867;DHT22;38739;53.324;6.862;2023-04-03T16:48:06;10.80;61.30
52867;DHT22;38739;53.324;6.862;2023-04-03T16:50:32;10.50;63.20
52867;DHT22;38739;53.324;6.862;2023-04-03T16:52:58;10.20;64.60
52867;DHT22;38739;53.324;6.862;2023-04-03T16:55:24;10.00;65.10
52867;DHT22;38739;53.324;6.862;2023-04-03T16:57:50;9.70;65.40
52867;DHT22;38739;53.324;6.862;2023-04-03T17:00:16;9.50;65.50
52867;DHT22;38739;53.324;6.862;2023-04-03T17:02:42;9.30;65.60
52867;DHT22;38739;53.324;6.862;2023-04-03T17:05:07;9.20;66.40
52867;DHT22;38739;53.324;6.862;2023-04-03T17:07:33;9.10;67.60
52867;DHT22;38739;53.324;6.862;2023-04-03T17:09:59;8.90;68.30
52867;DHT22;38739;53.324;6.862;2023-04-03T17:12:25;8.80;68.10
52867;DHT22;38739;53.324;6.862;2023-04-03T17:14:51;8.60;68.40
52867;DHT22;38739;53.324;6.862;2023-04-03T17:17:21;8.50;68.90
52867;DHT22;38739;53.324;6.862;2023-04-03T17:19:47;8.40;69.50
52867;DHT22;38739;53.324;6.862;2023-04-03T17:22:13;8.30;69.20
52867;DHT22;38739;53.324;6.862;2023-04-03T17:24:41;8.20;70.00
52867;DHT22;38739;53.324;6.862;2023-04-03T17:27:07;8.20;71.00
52867;DHT22;38739;53.324;6.862;2023-04-03T17:29:33;8.10;71.80
52867;DHT22;38739;53.324;6.862;2023-04-03T17:31:58;8.10;72.60
52867;DHT22;38739;53.324;6.862;2023-04-03T17:34:24;8.00;73.40
52867;DHT22;38739;53.324;6.862;2023-04-03T17:36:50;7.90;73.50
52867;DHT22;38739;53.324;6.862;2023-04-03T17:39:16;7.80;73.50
52867;DHT22;38739;53.324;6.862;2023-04-03T17:41:41;7.70;72.70
52867;DHT22;38739;53.324;6.862;2023-04-03T17:44:07;7.70;73.00
52867;DHT22;38739;53.324;6.862;2023-04-03T17:46:33;7.50;73.80